Sebastian, FL

3:30 AM EST on February 13, 2016 (GMT -0500)
NonFedAWOS | | Change Station
CLOSE
Current Station
Personal Weather Station
Location: Roseland, FL
Elevation: 21 ft
Nearby Weather Stations

Elev 21 ft 27.81 °N, 80.50 °W | Updated 2 hours ago

Clear
Clear
55.0 °F
Feels Like 55.0 °F
N
0.0
Wind Variable Wind from North
Gusts 0.0 mph

Today
High -- | Low -- °F
--% Chance of Precip.
Yesterday
High -- | Low -- °F
Precip. -- in
Pressure 30.17 in
Visibility 10.0 miles
Clouds Clear
Dew Point 54.0 °F
Humidity 93%
Rainfall in
Snow Depth Not available.
7:01 AM 6:11 PM
Waxing Crescent, 28% visible
METAR KVRB 130753Z 25005KT 10SM CLR 11/09 A3018 RMK AO2 SLP217 T01060094
Pressure 30.17 in
Visibility 10.0 miles
Clouds Clear
Dew Point 54.0 °F
Humidity 93%
Rainfall in
Snow Depth Not available.
7:01 AM 6:11 PM
Waxing Crescent, 28% visible
METAR KVRB 130753Z 25005KT 10SM CLR 11/09 A3018 RMK AO2 SLP217 T01060094

10-Day Weather Forecast

Almanac

Astronomy

Feb. 13, 2016 Rise Set
Actual Time
Civil Twilight
Nautical Twilight
Astronomical Twilight
Moon
Length of Visible Light
Length of Day
Tomorrow will be .
, % of the Moon is Illuminated

Today's Extremes

State Highs State Lows

Community

WunderPhotos

Upload Photos

1,892,536 photos uploaded!

WunderBlog® & News

Nearby

Air Quality

  Air Quality AQ Index Pollutant
Not available.

Snow Depth

Station Depth Elevation

Earthquake Activity

City Distance Mag. Time & Date
Minimum magnitude displayed is 2.5.

Coastal Water Temperatures

Place Temperature

Stations

Nearby Weather Stations

Station Location Temp. Windchill Dew Point Humidity Wind Precip. Elev Updated Type
                   

Watches & Warnings

There are currently no watches in effect.